createdAt,value
2019-01-29T00:00:33.774Z,99516.45
2019-01-29T00:03:01.297Z,99519.69
2019-01-29T00:05:28.825Z,99521.73
2019-01-29T00:07:56.378Z,99518.14
2019-01-29T00:10:23.888Z,99524.44
2019-01-29T00:12:51.472Z,99524.12
2019-01-29T00:15:18.977Z,99510.52
2019-01-29T00:17:46.512Z,99520.37
2019-01-29T00:20:14.550Z,99522.22
2019-01-29T00:22:42.093Z,99520.37
2019-01-29T00:25:09.858Z,99526.66
2019-01-29T00:27:37.365Z,99525.97
2019-01-29T00:30:11.683Z,99531.41
2019-01-29T00:32:39.181Z,99530.91
2019-01-29T00:35:06.690Z,99536.67
2019-01-29T00:37:34.213Z,99543.80
2019-01-29T00:40:01.771Z,99538.36
2019-01-29T00:42:29.267Z,99541.61
2019-01-29T00:44:56.793Z,99540.75
2019-01-29T00:47:24.317Z,99543.64
2019-01-29T00:49:51.840Z,99543.31
2019-01-29T00:52:19.363Z,99551.64
2019-01-29T00:54:46.867Z,99553.00
2019-01-29T00:57:14.389Z,99556.05
2019-01-29T00:59:41.897Z,99557.73
2019-01-29T01:02:09.391Z,99557.22
2019-01-29T01:04:36.939Z,99564.88
2019-01-29T01:07:04.438Z,99570.67
2019-01-29T01:09:31.974Z,99577.10
2019-01-29T01:11:59.491Z,99585.25
2019-01-29T01:14:27.011Z,99588.47
2019-01-29T01:16:54.527Z,99579.48
2019-01-29T01:19:22.043Z,99585.09
2019-01-29T01:21:49.562Z,99592.05
2019-01-29T01:24:17.071Z,99594.44
2019-01-29T01:26:44.579Z,99599.88
2019-01-29T01:29:12.109Z,99603.27
2019-01-29T01:31:39.625Z,99606.31
2019-01-29T01:34:07.120Z,99608.38
2019-01-29T01:36:34.655Z,99615.66
2019-01-29T01:39:02.153Z,99619.24
2019-01-29T01:41:29.644Z,99620.60
2019-01-29T01:43:57.171Z,99630.11
2019-01-29T01:46:24.678Z,99629.25
2019-01-29T01:48:52.218Z,99629.75
2019-01-29T01:51:19.722Z,99634.36
2019-01-29T01:53:47.232Z,99629.92
2019-01-29T01:56:14.742Z,99628.39
2019-01-29T01:58:42.259Z,99633.99
2019-01-29T02:01:09.757Z,99630.28
2019-01-29T02:03:37.276Z,99628.39
2019-01-29T02:06:04.799Z,99629.25
2019-01-29T02:08:32.310Z,99627.73
2019-01-29T02:10:59.789Z,99631.64
2019-01-29T02:13:27.306Z,99634.53
2019-01-29T02:15:54.833Z,99643.17
2019-01-29T02:18:22.332Z,99640.29
2019-01-29T02:20:49.843Z,99641.33
2019-01-29T02:23:17.340Z,99645.73
2019-01-29T02:25:44.868Z,99643.51
2019-01-29T02:28:12.344Z,99651.16
2019-01-29T02:30:39.857Z,99641.48
2019-01-29T02:33:07.377Z,99642.31
2019-01-29T02:35:34.907Z,99647.09
2019-01-29T02:38:02.447Z,99641.47
2019-01-29T02:40:29.978Z,99651.51
2019-01-29T02:42:57.538Z,99647.59
2019-01-29T02:45:25.047Z,99638.25
2019-01-29T02:47:52.576Z,99640.97
2019-01-29T02:50:20.065Z,99637.75
2019-01-29T02:52:47.618Z,99639.27
2019-01-29T02:55:15.655Z,99647.42
2019-01-29T02:57:43.169Z,99645.20
2019-01-29T03:00:12.310Z,99644.88
2019-01-29T03:02:39.854Z,99643.84
2019-01-29T03:05:08.815Z,99636.39
2019-01-29T03:07:36.316Z,99636.89
2019-01-29T03:10:05.499Z,99643.35
2019-01-29T03:12:32.992Z,99635.70
2019-01-29T03:15:00.534Z,99639.77
2019-01-29T03:17:28.089Z,99636.02
2019-01-29T03:19:55.606Z,99644.70
2019-01-29T03:22:23.114Z,99640.80
2019-01-29T03:24:50.614Z,99640.11
2019-01-29T03:27:18.124Z,99642.66
2019-01-29T03:29:45.656Z,99651.48
2019-01-29T03:32:14.086Z,99656.41
2019-01-29T03:34:41.610Z,99658.97
2019-01-29T03:37:09.099Z,99655.92
2019-01-29T03:39:36.609Z,99665.42
2019-01-29T03:42:04.130Z,99669.34
2019-01-29T03:44:31.625Z,99665.06
2019-01-29T03:46:59.139Z,99667.98
2019-01-29T03:49:26.659Z,99673.74
2019-01-29T03:51:54.152Z,99675.10
2019-01-29T03:54:21.666Z,99678.84
2019-01-29T03:56:49.190Z,99675.59
2019-01-29T03:59:16.682Z,99685.48
2019-01-29T04:01:44.203Z,99691.23
2019-01-29T04:04:11.687Z,99689.19
2019-01-29T04:06:39.227Z,99693.43
2019-01-29T04:09:07.580Z,99695.98
2019-01-29T04:11:35.111Z,99697.70
2019-01-29T04:14:02.609Z,99692.10
2019-01-29T04:16:30.114Z,99698.89
2019-01-29T04:18:57.622Z,99702.11
2019-01-29T04:21:25.158Z,99704.50
2019-01-29T04:23:52.644Z,99702.97
2019-01-29T04:26:20.188Z,99703.14
2019-01-29T04:28:47.687Z,99708.05
2019-01-29T04:31:15.178Z,99712.98
2019-01-29T04:33:42.689Z,99717.39
2019-01-29T04:36:10.237Z,99720.80
2019-01-29T04:38:37.744Z,99721.47
2019-01-29T04:41:05.250Z,99718.75
2019-01-29T04:43:32.785Z,99728.59
2019-01-29T04:46:00.274Z,99726.57
2019-01-29T04:48:27.805Z,99727.23
2019-01-29T04:50:55.329Z,99726.73
2019-01-29T04:53:22.826Z,99724.52
2019-01-29T04:55:50.338Z,99726.24
2019-01-29T04:58:17.824Z,99728.27
2019-01-29T05:00:45.359Z,99728.63
2019-01-29T05:03:12.875Z,99728.63
2019-01-29T05:05:40.377Z,99727.27
2019-01-29T05:08:07.920Z,99728.63
2019-01-29T05:10:35.447Z,99728.09
2019-01-29T05:13:02.983Z,99729.98
2019-01-29T05:15:30.567Z,99727.77
2019-01-29T05:17:58.111Z,99725.55
2019-01-29T05:20:25.619Z,99727.27
2019-01-29T05:22:53.144Z,99731.67
2019-01-29T05:25:20.679Z,99724.88
2019-01-29T05:27:48.182Z,99724.02
2019-01-29T05:30:17.323Z,99721.83
2019-01-29T05:32:44.861Z,99724.55
2019-01-29T05:35:12.387Z,99723.19
2019-01-29T05:37:39.881Z,99722.66
2019-01-29T05:40:08.994Z,99724.55
2019-01-29T05:42:36.517Z,99719.61
2019-01-29T05:45:05.306Z,99719.11
2019-01-29T05:47:32.832Z,99724.55
2019-01-29T05:50:00.352Z,99730.31
2019-01-29T05:52:27.893Z,99736.95
2019-01-29T05:54:55.407Z,99732.17
2019-01-29T05:57:22.917Z,99734.72
2019-01-29T05:59:50.433Z,99732.87
2019-01-29T06:02:17.943Z,99733.90
2019-01-29T06:04:45.472Z,99734.23
2019-01-29T06:07:12.969Z,99731.34
2019-01-29T06:09:40.511Z,99732.54
2019-01-29T06:12:08.041Z,99730.31
2019-01-29T06:14:35.552Z,99724.02
2019-01-29T06:17:03.057Z,99728.45
2019-01-29T06:19:30.583Z,99727.27
2019-01-29T06:21:58.107Z,99724.55
2019-01-29T06:24:26.194Z,99726.57
2019-01-29T06:26:53.921Z,99721.80
2019-01-29T06:29:21.437Z,99721.80
2019-01-29T06:31:48.983Z,99728.95
2019-01-29T06:34:16.487Z,99722.33
2019-01-29T06:36:44.019Z,99729.13
2019-01-29T06:39:11.515Z,99728.63
2019-01-29T06:41:39.037Z,99725.91
2019-01-29T06:44:06.577Z,99737.77
2019-01-29T06:46:34.090Z,99732.87
2019-01-29T06:49:01.595Z,99743.21
2019-01-29T06:51:29.121Z,99749.67
2019-01-29T06:53:56.647Z,99744.08
2019-01-29T06:56:24.240Z,99747.98
2019-01-29T06:58:52.020Z,99752.06
2019-01-29T07:01:19.519Z,99750.37
2019-01-29T07:03:47.021Z,99747.13
2019-01-29T07:06:14.542Z,99749.34
2019-01-29T07:08:42.039Z,99746.30
2019-01-29T07:11:09.593Z,99746.30
2019-01-29T07:13:37.101Z,99743.58
2019-01-29T07:16:06.304Z,99753.42
2019-01-29T07:18:35.459Z,99742.72
2019-01-29T07:21:04.625Z,99744.94
2019-01-29T07:23:32.148Z,99747.13
2019-01-29T07:25:59.657Z,99753.42
2019-01-29T07:28:27.191Z,99752.06
2019-01-29T07:30:54.706Z,99757.50
2019-01-29T07:33:22.231Z,99757.50
2019-01-29T07:35:49.727Z,99763.80
2019-01-29T07:38:17.256Z,99768.70
2019-01-29T07:40:44.751Z,99769.23
2019-01-29T07:43:12.276Z,99773.30
2019-01-29T07:45:39.768Z,99768.20
2019-01-29T07:48:07.299Z,99774.83
2019-01-29T07:50:34.889Z,99777.55
2019-01-29T07:53:02.387Z,99784.67
2019-01-29T07:55:29.897Z,99775.83
2019-01-29T07:57:57.398Z,99782.98
2019-01-29T08:00:24.915Z,99785.00
2019-01-29T08:02:52.447Z,99778.05
2019-01-29T08:05:20.737Z,99772.11
2019-01-29T08:07:48.446Z,99777.88
2019-01-29T08:10:16.638Z,99777.55
2019-01-29T08:12:44.157Z,99779.41
2019-01-29T08:15:15.611Z,99776.52
2019-01-29T08:17:43.105Z,99776.03
2019-01-29T08:20:11.258Z,99782.49
2019-01-29T08:22:38.765Z,99785.41
2019-01-29T08:25:07.847Z,99782.00
2019-01-29T08:27:35.373Z,99783.72
2019-01-29T08:30:03.453Z,99783.55
2019-01-29T08:32:30.975Z,99790.19
2019-01-29T08:34:58.487Z,99790.02
2019-01-29T08:37:26.003Z,99781.86
2019-01-29T08:39:53.500Z,99786.61
2019-01-29T08:42:21.024Z,99789.16
2019-01-29T08:44:48.527Z,99794.09
2019-01-29T08:47:16.036Z,99787.63
2019-01-29T08:49:43.581Z,99788.83
2019-01-29T08:52:11.686Z,99790.02
2019-01-29T08:54:39.290Z,99794.95
2019-01-29T08:57:06.806Z,99788.52
2019-01-29T08:59:34.297Z,99789.42
2019-01-29T09:02:01.801Z,99785.84
2019-01-29T09:04:29.328Z,99779.34
2019-01-29T09:06:56.832Z,99785.27
2019-01-29T09:09:24.347Z,99773.44
2019-01-29T09:11:51.860Z,99776.32
2019-01-29T09:14:19.374Z,99768.66
2019-01-29T09:16:46.884Z,99758.64
2019-01-29T09:19:14.411Z,99762.06
2019-01-29T09:21:41.897Z,99759.34
2019-01-29T09:24:09.412Z,99759.50
2019-01-29T09:26:36.904Z,99760.53
2019-01-29T09:29:04.439Z,99752.20
2019-01-29T09:31:31.942Z,99755.25
2019-01-29T09:33:59.544Z,99742.16
2019-01-29T09:36:27.084Z,99735.20
2019-01-29T09:38:54.603Z,99745.41
2019-01-29T09:41:22.094Z,99744.04
2019-01-29T09:43:49.645Z,99742.19
2019-01-29T09:46:17.180Z,99738.44
2019-01-29T09:48:44.665Z,99735.88
2019-01-29T09:51:12.196Z,99731.11
2019-01-29T09:53:39.721Z,99734.03
2019-01-29T09:56:07.238Z,99731.80
2019-01-29T09:58:34.730Z,99734.19
2019-01-29T10:01:02.252Z,99732.50
2019-01-29T10:03:29.758Z,99734.35
2019-01-29T10:05:57.281Z,99726.52
2019-01-29T10:08:24.771Z,99724.66
2019-01-29T10:10:52.300Z,99730.28
2019-01-29T10:13:19.869Z,99725.70
2019-01-29T10:15:47.424Z,99719.23
2019-01-29T10:18:14.953Z,99723.64
2019-01-29T10:20:42.454Z,99721.95
2019-01-29T10:23:09.981Z,99716.84
2019-01-29T10:25:38.245Z,99707.31
2019-01-29T10:28:05.762Z,99706.32
2019-01-29T10:30:33.288Z,99705.66
2019-01-29T10:33:00.794Z,99701.41
2019-01-29T10:35:28.776Z,99700.88
2019-01-29T10:37:56.271Z,99704.30
2019-01-29T10:40:24.930Z,99692.38
2019-01-29T10:42:52.492Z,99694.23
2019-01-29T10:45:20.804Z,99690.52
2019-01-29T10:47:48.302Z,99683.36
2019-01-29T10:50:23.097Z,99678.94
2019-01-29T10:52:50.692Z,99680.29
2019-01-29T10:55:18.200Z,99672.66
2019-01-29T10:57:45.704Z,99665.86
2019-01-29T11:00:20.992Z,99662.13
2019-01-29T11:02:48.499Z,99658.04
2019-01-29T11:05:17.178Z,99656.69
2019-01-29T11:07:44.703Z,99651.73
2019-01-29T11:10:16.883Z,99640.53
2019-01-29T11:12:44.417Z,99639.00
2019-01-29T11:15:13.803Z,99625.73
2019-01-29T11:17:41.326Z,99630.83
2019-01-29T11:20:13.168Z,99618.26
2019-01-29T11:22:40.694Z,99618.09
2019-01-29T11:25:10.071Z,99610.42
2019-01-29T11:27:37.770Z,99606.00
2019-01-29T11:30:06.913Z,99596.48
2019-01-29T11:32:34.432Z,99598.52
2019-01-29T11:35:01.943Z,99594.77
2019-01-29T11:37:29.476Z,99583.06
2019-01-29T11:39:56.999Z,99576.09
2019-01-29T11:42:24.530Z,99572.70
2019-01-29T11:44:52.042Z,99569.63
2019-01-29T11:47:19.612Z,99567.41
2019-01-29T11:49:47.138Z,99563.33
2019-01-29T11:52:14.629Z,99568.27
2019-01-29T11:54:42.164Z,99558.74
2019-01-29T11:57:09.675Z,99556.52
2019-01-29T11:59:37.182Z,99552.95
2019-01-29T12:02:04.691Z,99549.72
2019-01-29T12:04:32.232Z,99542.23
2019-01-29T12:06:59.720Z,99539.69
2019-01-29T12:09:27.249Z,99541.41
2019-01-29T12:11:54.832Z,99543.95
2019-01-29T12:14:22.339Z,99537.98
2019-01-29T12:16:49.893Z,99531.86
2019-01-29T12:19:17.389Z,99530.50
2019-01-29T12:21:44.883Z,99533.22
2019-01-29T12:24:12.419Z,99523.70
2019-01-29T12:26:39.914Z,99524.56
2019-01-29T12:29:07.445Z,99520.80
2019-01-29T12:31:34.963Z,99515.69
2019-01-29T12:34:02.474Z,99508.06
2019-01-29T12:36:29.989Z,99505.98
2019-01-29T12:38:57.501Z,99494.45
2019-01-29T12:41:25.005Z,99490.70
2019-01-29T12:43:52.531Z,99499.88
2019-01-29T12:46:20.055Z,99492.21
2019-01-29T12:48:47.567Z,99483.55
2019-01-29T12:51:16.711Z,99483.37
2019-01-29T12:53:44.236Z,99482.33
2019-01-29T12:56:11.735Z,99470.62
2019-01-29T12:58:39.306Z,99466.19
2019-01-29T13:01:06.805Z,99467.91
2019-01-29T13:03:34.355Z,99467.37
2019-01-29T13:06:01.847Z,99454.30
2019-01-29T13:08:29.402Z,99455.30
2019-01-29T13:10:56.932Z,99447.85
2019-01-29T13:13:24.431Z,99444.45
2019-01-29T13:15:52.507Z,99443.27
2019-01-29T13:18:20.033Z,99432.38
2019-01-29T13:20:47.557Z,99432.88
2019-01-29T13:23:15.111Z,99424.72
2019-01-29T13:25:42.661Z,99424.40
2019-01-29T13:28:10.165Z,99421.00
2019-01-29T13:30:37.673Z,99424.22
2019-01-29T13:33:06.491Z,99420.64
2019-01-29T13:35:34.548Z,99417.59
2019-01-29T13:38:02.063Z,99416.23
2019-01-29T13:40:29.657Z,99414.87
2019-01-29T13:42:57.159Z,99413.70
2019-01-29T13:45:24.751Z,99401.95
2019-01-29T13:47:52.282Z,99402.13
2019-01-29T13:50:27.482Z,99397.73
2019-01-29T13:52:54.999Z,99395.87
2019-01-29T13:55:22.503Z,99394.50
2019-01-29T13:57:50.037Z,99388.89
2019-01-29T14:00:19.173Z,99386.67
2019-01-29T14:02:46.686Z,99380.72
2019-01-29T14:05:14.205Z,99376.64
2019-01-29T14:07:41.718Z,99372.56
2019-01-29T14:10:11.107Z,99363.55
2019-01-29T14:12:38.615Z,99356.06
2019-01-29T14:15:07.718Z,99357.92
2019-01-29T14:17:35.254Z,99349.95
2019-01-29T14:20:02.753Z,99347.22
2019-01-29T14:22:30.267Z,99343.14
2019-01-29T14:24:57.789Z,99345.55
2019-01-29T14:27:25.405Z,99337.70
2019-01-29T14:29:52.927Z,99339.06
2019-01-29T14:32:20.641Z,99332.27
2019-01-29T14:34:48.171Z,99331.94
2019-01-29T14:37:15.659Z,99334.84
2019-01-29T14:39:51.251Z,99328.04
2019-01-29T14:42:18.750Z,99326.36
2019-01-29T14:44:46.345Z,99326.86
2019-01-29T14:47:13.850Z,99319.20
2019-01-29T14:49:41.376Z,99316.66
2019-01-29T14:52:08.899Z,99308.50
2019-01-29T14:54:36.437Z,99296.94
2019-01-29T14:57:04.017Z,99301.70
2019-01-29T14:59:31.511Z,99301.02
2019-01-29T15:01:59.058Z,99291.17
2019-01-29T15:04:26.608Z,99305.09
2019-01-29T15:06:54.182Z,99290.14
2019-01-29T15:09:21.755Z,99291.50
2019-01-29T15:11:49.252Z,99282.66
2019-01-29T15:14:16.787Z,99280.48
2019-01-29T15:16:46.053Z,99281.12
2019-01-29T15:19:13.766Z,99286.74
2019-01-29T15:21:41.374Z,99280.30
2019-01-29T15:24:08.865Z,99274.18
2019-01-29T15:26:36.407Z,99271.14
2019-01-29T15:29:03.911Z,99270.42
2019-01-29T15:31:31.424Z,99266.34
2019-01-29T15:33:58.946Z,99261.08
2019-01-29T15:36:26.462Z,99261.94
2019-01-29T15:38:53.972Z,99256.50
2019-01-29T15:41:21.471Z,99253.45
2019-01-29T15:43:48.987Z,99251.06
2019-01-29T15:46:16.499Z,99245.80
2019-01-29T15:48:44.025Z,99246.13
2019-01-29T15:51:11.522Z,99241.86
2019-01-29T15:53:39.045Z,99241.22
2019-01-29T15:56:06.627Z,99246.44
2019-01-29T15:58:34.240Z,99242.18
2019-01-29T16:01:01.744Z,99239.45
2019-01-29T16:03:29.279Z,99237.55
2019-01-29T16:05:56.786Z,99232.78
2019-01-29T16:08:24.323Z,99224.13
2019-01-29T16:10:51.836Z,99220.05
2019-01-29T16:13:19.356Z,99212.69
2019-01-29T16:15:46.888Z,99208.38
2019-01-29T16:18:14.387Z,99204.25
2019-01-29T16:20:41.900Z,99200.52
2019-01-29T16:23:09.519Z,99190.64
2019-01-29T16:25:37.280Z,99192.00
2019-01-29T16:28:04.784Z,99186.88
2019-01-29T16:30:35.843Z,99187.04
2019-01-29T16:33:03.361Z,99181.06
2019-01-29T16:35:32.591Z,99178.69
2019-01-29T16:38:00.085Z,99179.52
2019-01-29T16:40:28.683Z,99166.27
2019-01-29T16:42:56.685Z,99162.45
2019-01-29T16:45:25.695Z,99156.92
2019-01-29T16:47:53.195Z,99156.57
2019-01-29T16:50:21.862Z,99145.98
2019-01-29T16:52:49.409Z,99144.67
2019-01-29T16:55:18.073Z,99143.58
2019-01-29T16:57:45.596Z,99139.91
2019-01-29T17:00:14.762Z,99133.42
2019-01-29T17:02:42.258Z,99129.09
2019-01-29T17:05:10.048Z,99132.86
2019-01-29T17:07:37.586Z,99126.06
2019-01-29T17:10:09.116Z,99118.81
2019-01-29T17:12:37.318Z,99119.32
2019-01-29T17:15:17.195Z,99113.95
2019-01-29T17:17:45.409Z,99106.84
2019-01-29T17:20:22.048Z,99105.53
2019-01-29T17:22:50.257Z,99103.86
2019-01-29T17:25:18.526Z,99104.94
2019-01-29T17:27:46.752Z,99101.91
2019-01-29T17:30:27.039Z,99093.71
2019-01-29T17:32:55.257Z,99090.45
2019-01-29T17:35:23.485Z,99087.55
2019-01-29T17:37:51.718Z,99078.53
2019-01-29T17:40:21.365Z,99069.71
2019-01-29T17:42:49.610Z,99069.20
2019-01-29T17:45:21.090Z,99058.59
2019-01-29T17:47:49.315Z,99056.87
2019-01-29T17:50:20.647Z,99059.78
2019-01-29T17:52:48.887Z,99050.17
2019-01-29T17:55:17.632Z,99039.03
2019-01-29T17:57:50.756Z,99030.12
2019-01-29T18:00:19.058Z,99022.20
2019-01-29T18:02:47.301Z,99018.42
2019-01-29T18:05:15.515Z,99022.77
2019-01-29T18:07:43.735Z,99017.47
2019-01-29T18:10:14.879Z,99010.00
2019-01-29T18:12:43.102Z,99011.36
2019-01-29T18:15:14.891Z,99004.75
2019-01-29T18:17:43.107Z,99005.61
2019-01-29T18:20:11.412Z,99002.84
2019-01-29T18:22:39.690Z,98989.21
2019-01-29T18:25:10.378Z,98978.31
2019-01-29T18:27:38.585Z,98976.69
2019-01-29T18:30:10.059Z,98973.86
2019-01-29T18:32:38.298Z,98973.67
2019-01-29T18:35:08.266Z,98971.74
2019-01-29T18:37:36.513Z,98973.42
2019-01-29T18:40:07.976Z,98969.34
2019-01-29T18:42:36.170Z,98963.20
2019-01-29T18:45:06.145Z,98961.78
2019-01-29T18:47:34.354Z,98953.43
2019-01-29T18:50:02.557Z,98949.70
2019-01-29T18:52:30.779Z,98956.13
2019-01-29T18:54:58.975Z,98949.45
2019-01-29T18:57:27.202Z,98955.53
2019-01-29T18:59:55.404Z,98942.64
2019-01-29T19:02:23.730Z,98935.85
2019-01-29T19:04:51.904Z,98938.99
2019-01-29T19:07:20.131Z,98920.79
2019-01-29T19:09:48.324Z,98920.99
2019-01-29T19:12:16.613Z,98921.22
2019-01-29T19:14:44.859Z,98921.35
2019-01-29T19:17:13.060Z,98920.66
2019-01-29T19:19:41.279Z,98915.12
2019-01-29T19:22:09.478Z,98909.92
2019-01-29T19:24:37.713Z,98911.25
2019-01-29T19:27:05.930Z,98908.33
2019-01-29T19:29:34.171Z,98912.69
2019-01-29T19:32:02.452Z,98906.02
2019-01-29T19:34:30.694Z,98903.09
2019-01-29T19:36:58.921Z,98901.35
2019-01-29T19:39:27.138Z,98896.53
2019-01-29T19:41:55.386Z,98896.17
2019-01-29T19:44:23.577Z,98894.45
2019-01-29T19:46:51.801Z,98893.02
2019-01-29T19:49:20.027Z,98884.09
2019-01-29T19:51:49.096Z,98884.28
2019-01-29T19:54:17.411Z,98878.05
2019-01-29T19:56:45.657Z,98868.45
2019-01-29T19:59:13.851Z,98864.81
2019-01-29T20:01:42.082Z,98860.67
2019-01-29T20:04:10.323Z,98857.08
2019-01-29T20:06:38.529Z,98852.56
2019-01-29T20:09:09.413Z,98848.30
2019-01-29T20:11:37.623Z,98844.59
2019-01-29T20:14:05.934Z,98842.55
2019-01-29T20:16:34.150Z,98836.44
2019-01-29T20:19:02.387Z,98835.36
2019-01-29T20:21:30.615Z,98830.02
2019-01-29T20:23:58.865Z,98833.84
2019-01-29T20:26:27.081Z,98829.83
2019-01-29T20:28:55.317Z,98834.36
2019-01-29T20:31:23.551Z,98833.05
2019-01-29T20:33:51.772Z,98832.31
2019-01-29T20:36:19.995Z,98827.42
2019-01-29T20:38:48.274Z,98825.75
2019-01-29T20:41:16.488Z,98822.33
2019-01-29T20:43:44.691Z,98816.19
2019-01-29T20:46:12.919Z,98819.14
2019-01-29T20:48:41.125Z,98816.23
2019-01-29T20:51:09.341Z,98815.73
2019-01-29T20:53:37.537Z,98809.43
2019-01-29T20:56:05.781Z,98816.70
2019-01-29T20:58:34.002Z,98815.66
2019-01-29T21:01:02.228Z,98810.28
2019-01-29T21:03:30.430Z,98807.06
2019-01-29T21:05:58.724Z,98807.10
2019-01-29T21:08:26.914Z,98799.94
2019-01-29T21:10:55.135Z,98799.55
2019-01-29T21:13:23.358Z,98792.75
2019-01-29T21:15:51.577Z,98790.03
2019-01-29T21:18:19.789Z,98786.38
2019-01-29T21:20:56.896Z,98784.77
2019-01-29T21:23:17.935Z,98774.28
2019-01-29T21:25:46.136Z,98769.14
2019-01-29T21:28:14.366Z,98763.81
2019-01-29T21:30:44.031Z,98764.36
2019-01-29T21:33:12.385Z,98751.77
2019-01-29T21:35:40.596Z,98751.41
2019-01-29T21:38:08.796Z,98752.45
2019-01-29T21:40:37.038Z,98749.34
2019-01-29T21:43:05.227Z,98748.28
2019-01-29T21:45:33.477Z,98743.19
2019-01-29T21:48:01.737Z,98739.41
2019-01-29T21:50:34.336Z,98739.95
2019-01-29T21:53:02.547Z,98735.67
2019-01-29T21:55:30.868Z,98726.15
2019-01-29T21:57:59.496Z,98718.29
2019-01-29T22:00:30.332Z,98715.88
2019-01-29T22:02:58.561Z,98709.73
2019-01-29T22:05:26.770Z,98710.04
2019-01-29T22:07:57.499Z,98695.72
2019-01-29T22:10:24.959Z,98699.74
2019-01-29T22:12:53.160Z,98683.50
2019-01-29T22:15:23.756Z,98680.63
2019-01-29T22:17:51.984Z,98680.63
2019-01-29T22:20:21.610Z,98669.48
2019-01-29T22:22:49.818Z,98661.63
2019-01-29T22:25:22.317Z,98665.83
2019-01-29T22:27:50.502Z,98661.72
2019-01-29T22:30:34.040Z,98654.83
2019-01-29T22:33:02.231Z,98647.91
2019-01-29T22:35:30.474Z,98651.73
2019-01-29T22:37:58.713Z,98643.23
2019-01-29T22:40:29.580Z,98635.66
2019-01-29T22:42:57.960Z,98634.52
2019-01-29T22:45:26.180Z,98633.84
2019-01-29T22:47:54.406Z,98626.19
2019-01-29T22:50:30.882Z,98622.45
2019-01-29T22:52:59.116Z,98614.59
2019-01-29T22:55:27.328Z,98608.50
2019-01-29T22:57:55.537Z,98604.27
2019-01-29T23:00:51.119Z,98602.34
2019-01-29T23:03:25.595Z,98591.17
2019-01-29T23:05:59.628Z,98587.47
2019-01-29T23:08:27.858Z,98586.06
2019-01-29T23:10:57.465Z,98580.67
2019-01-29T23:13:25.755Z,98576.28
2019-01-29T23:15:53.962Z,98572.91
2019-01-29T23:18:22.188Z,98566.45
2019-01-29T23:20:50.415Z,98560.66
2019-01-29T23:23:18.627Z,98564.18
2019-01-29T23:25:46.830Z,98558.69
2019-01-29T23:28:15.052Z,98558.88
2019-01-29T23:30:43.246Z,98546.19
2019-01-29T23:33:11.475Z,98545.23
2019-01-29T23:35:39.672Z,98538.34
2019-01-29T23:38:07.881Z,98550.58
2019-01-29T23:40:36.109Z,98537.37
2019-01-29T23:43:04.310Z,98531.17
2019-01-29T23:45:32.500Z,98522.92
2019-01-29T23:48:00.703Z,98523.32
2019-01-29T23:50:29.636Z,98514.25
2019-01-29T23:52:57.852Z,98508.56
2019-01-29T23:55:26.536Z,98508.76
2019-01-29T23:57:54.732Z,98497.57
